createdAt,value
2022-08-29T00:00:38.766Z,18.01
2022-08-29T00:03:08.802Z,18.03
2022-08-29T00:05:39.816Z,18.03
2022-08-29T00:08:07.130Z,17.97
2022-08-29T00:10:37.004Z,17.93
2022-08-29T00:13:06.566Z,17.90
2022-08-29T00:15:42.079Z,17.94
2022-08-29T00:18:13.559Z,17.98
2022-08-29T00:20:40.832Z,18.04
2022-08-29T00:23:07.916Z,18.07
2022-08-29T00:25:35.076Z,18.13
2022-08-29T00:28:02.636Z,18.13
2022-08-29T00:30:30.022Z,18.08
2022-08-29T00:32:57.164Z,17.99
2022-08-29T00:35:30.985Z,17.94
2022-08-29T00:37:58.675Z,17.94
2022-08-29T00:40:29.756Z,17.91
2022-08-29T00:42:57.669Z,17.95
2022-08-29T00:45:25.184Z,17.94
2022-08-29T00:48:12.024Z,17.84
2022-08-29T00:50:59.312Z,17.67
2022-08-29T00:53:35.167Z,17.48
2022-08-29T00:56:03.270Z,17.39
2022-08-29T00:58:41.275Z,17.33
2022-08-29T01:01:08.366Z,17.25
2022-08-29T01:03:39.398Z,17.24
2022-08-29T01:06:11.404Z,17.21
2022-08-29T01:08:38.349Z,17.20
2022-08-29T01:11:24.760Z,17.22
2022-08-29T01:13:54.921Z,17.15
2022-08-29T01:16:23.102Z,17.15
2022-08-29T01:18:53.331Z,17.07
2022-08-29T01:21:41.179Z,17.03
2022-08-29T01:24:43.821Z,17.00
2022-08-29T01:27:12.641Z,16.95
2022-08-29T01:29:40.161Z,16.89
2022-08-29T01:32:07.057Z,16.83
2022-08-29T01:34:33.811Z,16.82
2022-08-29T01:37:03.638Z,16.82
2022-08-29T01:39:34.016Z,16.86
2022-08-29T01:42:04.049Z,16.90
2022-08-29T01:44:30.866Z,16.92
2022-08-29T01:47:03.034Z,16.95
2022-08-29T01:49:33.178Z,17.09
2022-08-29T01:52:02.147Z,17.02
2022-08-29T01:54:30.220Z,17.12
2022-08-29T01:56:57.524Z,17.14
2022-08-29T01:59:27.369Z,17.12
2022-08-29T02:02:09.245Z,17.03
2022-08-29T02:04:36.713Z,16.99
2022-08-29T02:07:03.875Z,16.96
2022-08-29T02:09:30.777Z,16.93
2022-08-29T02:11:58.511Z,16.83
2022-08-29T02:14:25.406Z,16.78
2022-08-29T02:16:52.152Z,16.74
2022-08-29T02:19:19.498Z,16.68
2022-08-29T02:21:47.019Z,16.80
2022-08-29T02:24:25.342Z,16.84
2022-08-29T02:26:54.654Z,16.73
2022-08-29T02:29:21.638Z,16.62
2022-08-29T02:31:48.837Z,16.63
2022-08-29T02:34:16.064Z,16.51
2022-08-29T02:36:43.996Z,16.61
2022-08-29T02:39:11.636Z,16.62
2022-08-29T02:41:38.846Z,16.60
2022-08-29T02:44:05.691Z,16.57
2022-08-29T02:46:32.628Z,16.55
2022-08-29T02:49:00.832Z,16.57
2022-08-29T02:51:30.842Z,16.45
2022-08-29T02:53:59.074Z,16.46
2022-08-29T02:56:26.298Z,16.46
2022-08-29T02:58:53.176Z,16.48
2022-08-29T03:01:22.229Z,16.49
2022-08-29T03:03:50.458Z,16.47
2022-08-29T03:06:18.757Z,16.40
2022-08-29T03:08:45.910Z,16.36
2022-08-29T03:11:13.867Z,16.29
2022-08-29T03:13:40.862Z,16.24
2022-08-29T03:16:08.843Z,16.24
2022-08-29T03:18:37.579Z,16.19
2022-08-29T03:21:04.533Z,16.17
2022-08-29T03:23:31.394Z,16.16
2022-08-29T03:25:58.381Z,16.16
2022-08-29T03:28:25.567Z,16.18
2022-08-29T03:30:52.428Z,16.15
2022-08-29T03:33:19.337Z,16.19
2022-08-29T03:35:46.237Z,16.21
2022-08-29T03:38:13.254Z,16.16
2022-08-29T03:40:42.429Z,16.14
2022-08-29T03:43:09.874Z,16.18
2022-08-29T03:45:36.854Z,16.14
2022-08-29T03:48:04.383Z,16.17
2022-08-29T03:50:31.469Z,16.24
2022-08-29T03:52:58.436Z,16.30
2022-08-29T03:55:25.362Z,16.33
2022-08-29T03:57:54.432Z,16.41
2022-08-29T04:00:21.580Z,16.45
2022-08-29T04:02:49.080Z,16.52
2022-08-29T04:05:18.198Z,16.55
2022-08-29T04:07:48.162Z,16.54
2022-08-29T04:10:20.292Z,16.50
2022-08-29T04:12:51.224Z,16.47
2022-08-29T04:15:21.510Z,16.49
2022-08-29T04:17:53.003Z,16.44
2022-08-29T04:20:25.091Z,16.42
2022-08-29T04:22:54.398Z,16.38
2022-08-29T04:25:24.960Z,16.30
2022-08-29T04:27:52.148Z,16.30
2022-08-29T04:30:21.810Z,16.37
2022-08-29T04:32:48.636Z,16.43
2022-08-29T04:35:16.475Z,16.54
2022-08-29T04:37:44.418Z,16.60
2022-08-29T04:40:15.484Z,16.68
2022-08-29T04:42:43.180Z,16.70
2022-08-29T04:45:13.285Z,16.69
2022-08-29T04:47:41.708Z,16.81
2022-08-29T04:50:12.733Z,16.88
2022-08-29T04:52:39.809Z,16.94
2022-08-29T04:55:08.877Z,17.05
2022-08-29T04:57:38.197Z,17.12
2022-08-29T05:00:08.040Z,17.15
2022-08-29T05:02:34.894Z,17.26
2022-08-29T05:05:02.518Z,17.34
2022-08-29T05:07:29.504Z,17.42
2022-08-29T05:10:00.171Z,17.48
2022-08-29T05:15:54.744Z,17.69
2022-08-29T05:18:21.561Z,17.82
2022-08-29T05:20:49.154Z,17.94
2022-08-29T05:23:17.888Z,18.07
2022-08-29T05:25:45.992Z,18.37
2022-08-29T05:28:13.897Z,18.56
2022-08-29T05:30:41.393Z,18.80
2022-08-29T05:33:08.648Z,19.07
2022-08-29T05:35:35.991Z,19.33
2022-08-29T05:38:07.251Z,19.55
2022-08-29T05:40:36.860Z,19.80
2022-08-29T05:43:04.073Z,19.90
2022-08-29T05:45:30.811Z,20.23
2022-08-29T05:47:58.207Z,20.48
2022-08-29T05:50:24.984Z,20.61
2022-08-29T05:52:51.740Z,20.87
2022-08-29T05:55:18.607Z,21.03
2022-08-29T05:57:45.479Z,21.13
2022-08-29T06:00:14.356Z,21.24
2022-08-29T06:02:41.173Z,21.37
2022-08-29T06:05:08.905Z,21.42
2022-08-29T06:07:37.632Z,21.46
2022-08-29T06:10:06.923Z,21.44
2022-08-29T06:12:34.312Z,21.65
2022-08-29T06:15:01.739Z,21.72
2022-08-29T06:17:28.598Z,21.85
2022-08-29T06:19:55.348Z,21.89
2022-08-29T06:22:22.586Z,21.84
2022-08-29T06:24:53.324Z,21.99
2022-08-29T06:27:20.587Z,21.84
2022-08-29T06:29:47.344Z,21.93
2022-08-29T06:32:14.299Z,21.91
2022-08-29T06:34:41.213Z,21.95
2022-08-29T06:37:08.031Z,21.89
2022-08-29T06:39:35.273Z,22.02
2022-08-29T06:42:02.295Z,22.12
2022-08-29T06:44:31.588Z,22.24
2022-08-29T06:46:59.026Z,22.31
2022-08-29T06:49:27.627Z,22.29
2022-08-29T06:51:57.940Z,22.35
2022-08-29T06:54:27.922Z,22.51
2022-08-29T06:56:56.080Z,22.69
2022-08-29T06:59:23.142Z,22.72
2022-08-29T07:01:50.148Z,22.81
2022-08-29T07:04:16.931Z,22.82
2022-08-29T07:06:48.870Z,22.84
2022-08-29T07:09:15.875Z,22.63
2022-08-29T07:11:43.272Z,22.90
2022-08-29T07:14:11.864Z,23.07
2022-08-29T07:16:39.446Z,23.29
2022-08-29T07:19:08.708Z,23.33
2022-08-29T07:21:36.001Z,23.47
2022-08-29T07:24:03.445Z,23.62
2022-08-29T07:26:33.541Z,23.57
2022-08-29T07:29:03.721Z,23.76
2022-08-29T07:31:31.423Z,23.82
2022-08-29T07:34:02.076Z,23.98
2022-08-29T07:36:31.846Z,24.06
2022-08-29T07:38:58.891Z,24.29
2022-08-29T07:41:25.869Z,24.32
2022-08-29T07:43:52.936Z,24.75
2022-08-29T07:46:20.939Z,24.95
2022-08-29T07:48:48.552Z,25.17
2022-08-29T07:51:18.046Z,25.35
2022-08-29T07:53:45.564Z,25.46
2022-08-29T07:56:25.870Z,25.43
2022-08-29T07:58:53.943Z,25.51
2022-08-29T08:01:21.948Z,25.57
2022-08-29T08:03:50.354Z,25.56
2022-08-29T08:06:20.811Z,25.30
2022-08-29T08:08:48.681Z,25.25
2022-08-29T08:11:15.831Z,25.15
2022-08-29T08:13:43.198Z,25.12
2022-08-29T08:16:13.837Z,25.19
2022-08-29T08:18:42.420Z,25.29
2022-08-29T08:21:09.980Z,25.45
2022-08-29T08:23:37.540Z,25.72
2022-08-29T08:26:04.633Z,25.90
2022-08-29T08:28:31.482Z,26.08
2022-08-29T08:31:05.046Z,26.09
2022-08-29T08:33:34.854Z,26.24
2022-08-29T08:36:02.809Z,26.26
2022-08-29T08:38:31.158Z,26.19
2022-08-29T08:41:22.883Z,26.49
2022-08-29T08:44:00.650Z,26.62
2022-08-29T08:46:39.840Z,26.93
2022-08-29T08:49:16.952Z,26.95
2022-08-29T08:51:52.445Z,26.97
2022-08-29T08:54:24.520Z,27.00
2022-08-29T08:57:01.325Z,27.16
2022-08-29T08:59:35.540Z,27.39
2022-08-29T09:02:27.626Z,27.47
2022-08-29T09:05:14.643Z,27.55
2022-08-29T09:07:50.943Z,27.66
2022-08-29T09:10:31.373Z,27.79
2022-08-29T09:12:58.614Z,27.98
2022-08-29T09:15:34.334Z,28.14
2022-08-29T09:18:04.635Z,28.40
2022-08-29T09:20:36.797Z,28.60
2022-08-29T09:23:11.231Z,28.76
2022-08-29T09:25:38.119Z,29.10
2022-08-29T09:28:07.661Z,28.95
2022-08-29T09:30:36.768Z,28.99
2022-08-29T09:33:15.783Z,28.93
2022-08-29T09:35:48.774Z,29.12
2022-08-29T09:38:18.611Z,29.13
2022-08-29T09:40:48.285Z,29.50
2022-08-29T09:43:22.036Z,29.67
2022-08-29T09:46:07.705Z,29.61
2022-08-29T09:48:37.589Z,29.36
2022-08-29T09:51:40.656Z,29.24
2022-08-29T09:54:26.525Z,29.59
2022-08-29T09:57:11.791Z,29.92
2022-08-29T09:59:43.662Z,30.03
2022-08-29T10:02:19.613Z,30.30
2022-08-29T10:04:55.797Z,30.57
2022-08-29T10:07:32.389Z,30.76
2022-08-29T10:10:07.241Z,31.09
2022-08-29T10:12:38.745Z,31.42
2022-08-29T10:15:23.602Z,31.64
2022-08-29T10:18:21.414Z,31.80
2022-08-29T10:20:56.862Z,32.26
2022-08-29T10:23:49.632Z,32.85
2022-08-29T10:26:20.111Z,32.99
2022-08-29T10:28:59.581Z,33.41
2022-08-29T10:31:32.518Z,33.33
2022-08-29T10:34:18.083Z,33.19
2022-08-29T10:36:55.308Z,33.68
2022-08-29T10:39:33.450Z,34.32
2022-08-29T10:42:06.170Z,34.90
2022-08-29T10:44:54.575Z,35.28
2022-08-29T10:47:53.855Z,35.56
2022-08-29T10:50:44.034Z,35.41
2022-08-29T10:53:32.565Z,35.23
2022-08-29T10:56:28.436Z,34.82
2022-08-29T10:59:18.615Z,33.97
2022-08-29T11:02:05.511Z,33.52
2022-08-29T11:04:43.669Z,32.78
2022-08-29T11:07:19.594Z,31.85
2022-08-29T11:10:07.191Z,31.48
2022-08-29T11:12:45.916Z,31.03
2022-08-29T11:15:18.486Z,30.27
2022-08-29T11:17:51.956Z,29.58
2022-08-29T11:20:32.194Z,29.44
2022-08-29T11:23:35.905Z,29.39
2022-08-29T11:26:19.201Z,29.09
2022-08-29T11:28:51.411Z,28.91
2022-08-29T11:31:32.842Z,28.63
2022-08-29T11:34:34.202Z,28.32
2022-08-29T11:37:21.324Z,28.66
2022-08-29T11:40:13.176Z,29.07
2022-08-29T11:42:52.757Z,29.52
2022-08-29T11:45:37.515Z,29.90
2022-08-29T11:48:36.802Z,30.41
2022-08-29T11:51:31.928Z,30.73
2022-08-29T11:54:25.397Z,31.15
2022-08-29T11:57:00.848Z,31.61
2022-08-29T11:59:49.441Z,32.63
2022-08-29T12:02:28.466Z,33.61
2022-08-29T12:04:56.631Z,34.30
2022-08-29T12:07:52.003Z,34.69
2022-08-29T12:10:24.642Z,34.60
2022-08-29T12:12:56.511Z,34.62
2022-08-29T12:15:42.143Z,34.61
2022-08-29T12:18:13.649Z,34.68
2022-08-29T12:20:46.504Z,34.19
2022-08-29T12:23:13.252Z,33.94
2022-08-29T12:25:43.738Z,33.52
2022-08-29T12:28:27.014Z,33.27
2022-08-29T12:31:11.102Z,32.91
2022-08-29T12:33:59.944Z,32.53
2022-08-29T12:37:04.065Z,32.25
2022-08-29T12:39:42.550Z,31.99
2022-08-29T12:42:35.559Z,31.68
2022-08-29T12:45:05.188Z,31.19
2022-08-29T12:47:46.116Z,30.81
2022-08-29T12:50:22.460Z,30.59
2022-08-29T12:53:23.544Z,30.27
2022-08-29T12:56:00.123Z,29.92
2022-08-29T12:58:54.881Z,29.93
2022-08-29T13:01:37.899Z,29.78
2022-08-29T13:04:13.095Z,29.69
2022-08-29T13:06:54.583Z,29.74
2022-08-29T13:09:31.765Z,29.75
2022-08-29T13:12:14.118Z,29.49
2022-08-29T13:14:59.454Z,29.25
2022-08-29T13:17:35.376Z,28.97
2022-08-29T13:20:48.732Z,29.02
2022-08-29T13:23:18.533Z,28.95
2022-08-29T13:25:55.901Z,28.87
2022-08-29T13:28:37.964Z,28.73
2022-08-29T13:31:14.336Z,28.85
2022-08-29T13:33:50.502Z,28.77
2022-08-29T13:36:38.363Z,28.68
2022-08-29T13:39:17.467Z,28.72
2022-08-29T13:42:02.661Z,28.70
2022-08-29T13:44:55.696Z,28.71
2022-08-29T13:47:26.213Z,28.66
2022-08-29T13:49:59.464Z,28.68
2022-08-29T13:52:31.466Z,28.57
2022-08-29T13:54:59.277Z,28.47
2022-08-29T13:57:29.490Z,28.36
2022-08-29T13:59:57.883Z,28.28
2022-08-29T14:02:44.667Z,28.09
2022-08-29T14:05:13.795Z,27.99
2022-08-29T14:07:44.013Z,27.90
2022-08-29T14:10:14.072Z,27.78
2022-08-29T14:12:41.134Z,27.46
2022-08-29T14:15:11.164Z,27.54
2022-08-29T14:17:41.837Z,27.43
2022-08-29T14:20:10.847Z,27.45
2022-08-29T14:22:38.612Z,27.23
2022-08-29T14:25:07.992Z,27.05
2022-08-29T14:27:35.587Z,26.92
2022-08-29T14:30:03.910Z,26.92
2022-08-29T14:32:30.697Z,26.58
2022-08-29T14:34:58.558Z,26.50
2022-08-29T14:37:25.403Z,26.36
2022-08-29T14:39:52.454Z,26.18
2022-08-29T14:42:19.970Z,26.23
2022-08-29T14:44:46.744Z,26.18
2022-08-29T14:47:13.869Z,26.21
2022-08-29T14:49:41.178Z,26.18
2022-08-29T14:52:09.157Z,26.11
2022-08-29T14:54:35.978Z,26.12
2022-08-29T14:57:02.888Z,26.15
2022-08-29T14:59:29.745Z,26.06
2022-08-29T15:01:56.660Z,26.07
2022-08-29T15:04:35.936Z,26.17
2022-08-29T15:07:12.000Z,25.96
2022-08-29T15:09:41.867Z,25.96
2022-08-29T15:12:08.951Z,25.83
2022-08-29T15:14:36.023Z,25.80
2022-08-29T15:17:06.459Z,25.72
2022-08-29T15:22:22.352Z,25.72
2022-08-29T15:24:51.068Z,25.81
2022-08-29T15:27:23.620Z,25.86
2022-08-29T15:29:53.405Z,25.91
2022-08-29T15:32:20.301Z,25.98
2022-08-29T15:34:47.074Z,25.82
2022-08-29T15:37:14.241Z,25.53
2022-08-29T15:39:41.705Z,25.18
2022-08-29T15:42:11.313Z,24.87
2022-08-29T15:44:39.826Z,24.59
2022-08-29T15:47:10.543Z,24.42
2022-08-29T15:49:38.190Z,24.32
2022-08-29T15:52:05.139Z,24.26
2022-08-29T15:54:32.057Z,24.09
2022-08-29T15:56:58.888Z,24.13
2022-08-29T15:59:47.181Z,24.11
2022-08-29T16:02:14.545Z,24.13
2022-08-29T16:04:47.765Z,24.12
2022-08-29T16:07:15.825Z,24.11
2022-08-29T16:09:43.821Z,24.10
2022-08-29T16:12:11.589Z,24.17
2022-08-29T16:14:58.440Z,24.21
2022-08-29T16:17:26.501Z,24.26
2022-08-29T16:19:53.280Z,24.37
2022-08-29T16:22:20.269Z,24.44
2022-08-29T16:24:47.445Z,24.51
2022-08-29T16:27:14.256Z,24.50
2022-08-29T16:29:41.136Z,24.51
2022-08-29T16:32:08.620Z,24.57
2022-08-29T16:34:35.764Z,24.59
2022-08-29T16:37:02.968Z,24.56
2022-08-29T16:39:29.979Z,24.60
2022-08-29T16:41:56.965Z,24.64
2022-08-29T16:44:24.552Z,24.46
2022-08-29T16:46:51.700Z,24.26
2022-08-29T16:49:19.098Z,23.61
2022-08-29T16:51:46.189Z,23.37
2022-08-29T16:54:13.570Z,23.15
2022-08-29T16:56:40.352Z,23.03
2022-08-29T16:59:08.033Z,22.97
2022-08-29T17:01:46.720Z,22.77
2022-08-29T17:04:22.198Z,22.78
2022-08-29T17:06:49.216Z,22.75
2022-08-29T17:09:17.839Z,22.73
2022-08-29T17:11:45.503Z,22.60
2022-08-29T17:14:14.067Z,22.66
2022-08-29T17:16:41.853Z,22.68
2022-08-29T17:19:08.843Z,22.63
2022-08-29T17:21:35.824Z,22.68
2022-08-29T17:24:04.300Z,22.66
2022-08-29T17:26:31.224Z,22.63
2022-08-29T17:28:58.094Z,22.46
2022-08-29T17:31:25.270Z,22.40
2022-08-29T17:33:52.649Z,22.46
2022-08-29T17:36:21.396Z,22.41
2022-08-29T17:38:48.616Z,22.43
2022-08-29T17:41:19.389Z,22.40
2022-08-29T17:43:48.610Z,22.32
2022-08-29T17:46:17.410Z,22.23
2022-08-29T17:48:45.716Z,22.26
2022-08-29T17:51:12.624Z,22.12
2022-08-29T17:53:41.133Z,22.08
2022-08-29T17:56:12.381Z,22.09
2022-08-29T17:58:40.551Z,22.09
2022-08-29T18:01:15.133Z,22.06
2022-08-29T18:03:43.364Z,21.87
2022-08-29T18:06:10.329Z,21.95
2022-08-29T18:08:39.089Z,21.87
2022-08-29T18:11:06.610Z,21.69
2022-08-29T18:13:34.012Z,21.64
2022-08-29T18:16:00.970Z,21.54
2022-08-29T18:18:29.270Z,21.39
2022-08-29T18:20:56.191Z,21.41
2022-08-29T18:23:23.144Z,21.39
2022-08-29T18:25:51.505Z,21.37
2022-08-29T18:28:19.134Z,21.41
2022-08-29T18:30:46.049Z,21.36
2022-08-29T18:33:13.667Z,21.50
2022-08-29T18:35:41.148Z,21.46
2022-08-29T18:38:08.303Z,21.44
2022-08-29T18:40:38.955Z,21.42
2022-08-29T18:43:09.806Z,21.41
2022-08-29T18:45:38.160Z,21.42
2022-08-29T18:48:05.493Z,21.37
2022-08-29T18:50:35.231Z,21.38
2022-08-29T18:53:14.643Z,21.37
2022-08-29T18:55:50.473Z,21.36
2022-08-29T18:58:20.821Z,21.26
2022-08-29T19:00:48.607Z,21.23
2022-08-29T19:03:16.073Z,21.20
2022-08-29T19:05:49.198Z,21.18
2022-08-29T19:08:22.147Z,21.13
2022-08-29T19:10:49.455Z,21.14
2022-08-29T19:13:20.763Z,21.11
2022-08-29T19:15:48.680Z,21.05
2022-08-29T19:18:16.341Z,21.00
2022-08-29T19:21:01.933Z,20.90
2022-08-29T19:23:56.008Z,20.81
2022-08-29T19:26:28.542Z,20.70
2022-08-29T19:29:01.561Z,20.61
2022-08-29T19:31:29.291Z,20.53
2022-08-29T19:33:57.395Z,20.47
2022-08-29T19:36:24.879Z,20.48
2022-08-29T19:38:51.827Z,20.53
2022-08-29T19:41:19.226Z,20.56
2022-08-29T19:43:46.040Z,20.57
2022-08-29T19:46:17.967Z,20.59
2022-08-29T19:48:48.769Z,20.56
2022-08-29T19:51:19.639Z,20.57
2022-08-29T19:53:48.538Z,20.45
2022-08-29T19:56:17.862Z,20.49
2022-08-29T19:58:44.843Z,20.49
2022-08-29T20:01:11.988Z,20.50
2022-08-29T20:03:40.794Z,20.49
2022-08-29T20:06:08.828Z,20.46
2022-08-29T20:08:37.429Z,20.41
2022-08-29T20:11:06.412Z,20.32
2022-08-29T20:13:35.746Z,20.29
2022-08-29T20:16:09.598Z,20.37
2022-08-29T20:18:40.846Z,20.39
2022-08-29T20:21:08.149Z,20.33
2022-08-29T20:23:43.540Z,20.20
2022-08-29T20:26:18.844Z,20.21
2022-08-29T20:28:46.345Z,20.21
2022-08-29T20:31:13.310Z,20.11
2022-08-29T20:33:42.559Z,20.18
2022-08-29T20:36:28.182Z,20.18
2022-08-29T20:38:55.008Z,20.13
2022-08-29T20:41:23.127Z,20.16
2022-08-29T20:43:50.184Z,20.13
2022-08-29T20:46:17.225Z,20.16
2022-08-29T20:48:44.390Z,20.18
2022-08-29T20:51:11.471Z,20.13
2022-08-29T20:53:39.415Z,20.12
2022-08-29T20:56:06.737Z,20.08
2022-08-29T20:58:34.688Z,20.07
2022-08-29T21:01:02.203Z,20.00
2022-08-29T21:03:47.899Z,19.95
2022-08-29T21:06:18.589Z,19.84
2022-08-29T21:08:45.583Z,19.86
2022-08-29T21:11:14.355Z,19.79
2022-08-29T21:13:43.365Z,19.66
2022-08-29T21:16:11.490Z,19.59
2022-08-29T21:18:38.900Z,19.62
2022-08-29T21:21:06.592Z,19.64
2022-08-29T21:23:34.348Z,19.66
2022-08-29T21:26:01.882Z,19.70
2022-08-29T21:28:29.598Z,19.61
2022-08-29T21:31:02.361Z,19.55
2022-08-29T21:33:29.432Z,19.58
2022-08-29T21:35:59.829Z,19.52
2022-08-29T21:38:29.538Z,19.53
2022-08-29T21:40:58.658Z,19.36
2022-08-29T21:43:25.599Z,19.35
2022-08-29T21:45:52.556Z,19.20
2022-08-29T21:48:19.433Z,19.16
2022-08-29T21:50:46.281Z,19.13
2022-08-29T21:53:14.778Z,19.13
2022-08-29T21:55:42.084Z,19.10
2022-08-29T21:58:08.896Z,19.05
2022-08-29T22:00:36.891Z,19.07
2022-08-29T22:03:06.325Z,19.05
2022-08-29T22:05:33.477Z,19.04
2022-08-29T22:08:03.220Z,19.00
2022-08-29T22:10:33.604Z,19.03
2022-08-29T22:13:01.641Z,19.00
2022-08-29T22:15:47.641Z,18.95
2022-08-29T22:18:15.272Z,18.96
2022-08-29T22:20:43.633Z,18.96
2022-08-29T22:23:10.888Z,18.93
2022-08-29T22:25:37.738Z,18.88
2022-08-29T22:28:04.987Z,18.85
2022-08-29T22:30:33.087Z,18.98
2022-08-29T22:33:01.431Z,19.03
2022-08-29T22:35:28.979Z,19.11
2022-08-29T22:37:55.929Z,19.09
2022-08-29T22:40:23.096Z,19.13
2022-08-29T22:42:49.991Z,18.91
2022-08-29T22:45:18.256Z,18.94
2022-08-29T22:47:46.593Z,18.86
2022-08-29T22:50:18.212Z,18.98
2022-08-29T22:52:45.915Z,19.01
2022-08-29T22:57:48.419Z,19.09
2022-08-29T23:00:19.440Z,19.14
2022-08-29T23:02:46.910Z,19.14
2022-08-29T23:05:14.663Z,19.17
2022-08-29T23:07:41.654Z,19.08
2022-08-29T23:10:09.443Z,19.04
2022-08-29T23:12:36.892Z,18.94
2022-08-29T23:15:06.457Z,18.95
2022-08-29T23:17:33.253Z,18.87
2022-08-29T23:20:00.360Z,18.93
2022-08-29T23:22:27.536Z,18.88
2022-08-29T23:24:58.134Z,18.83
2022-08-29T23:27:29.869Z,18.77
2022-08-29T23:29:58.924Z,18.63
2022-08-29T23:32:26.312Z,18.65
2022-08-29T23:34:53.089Z,18.62
2022-08-29T23:37:19.901Z,18.67
2022-08-29T23:39:46.824Z,18.70
2022-08-29T23:42:13.588Z,18.71
2022-08-29T23:44:40.369Z,18.75
2022-08-29T23:47:08.465Z,18.71
2022-08-29T23:49:35.490Z,18.65
2022-08-29T23:52:02.568Z,18.68
2022-08-29T23:54:31.363Z,18.69
2022-08-29T23:56:58.236Z,18.68
2022-08-29T23:59:43.762Z,18.69
